Map

Track Data

SID SEASON NUMBER BASIN SUBBASIN NAME ISO_TIME NATURE LAT LON WMO_WIND WMO_PRES WMO_AGENCY TRACK_TYPE DIST2LAND LANDFALL IFLAG USA_AGENCY USA_ATCF_ID USA_LAT USA_LON USA_RECORD USA_STATUS USA_WIND USA_PRES USA_SSHS USA_R34_NE USA_R34_SE USA_R34_SW USA_R34_NW USA_R50_NE USA_R50_SE USA_R50_SW USA_R50_NW USA_R64_NE USA_R64_SE USA_R64_SW USA_R64_NW USA_POCI USA_ROCI USA_RMW USA_EYE TOKYO_LAT TOKYO_LON TOKYO_GRADE TOKYO_WIND TOKYO_PRES TOKYO_R50_DIR TOKYO_R50_LONG TOKYO_R50_SHORT TOKYO_R30_DIR TOKYO_R30_LONG TOKYO_R30_SHORT TOKYO_LAND CMA_LAT CMA_LON CMA_CAT CMA_WIND CMA_PRES HKO_LAT HKO_LON HKO_CAT HKO_WIND HKO_PRES NEWDELHI_LAT NEWDELHI_LON NEWDELHI_GRADE NEWDELHI_WIND NEWDELHI_PRES NEWDELHI_CI NEWDELHI_DP NEWDELHI_POCI REUNION_LAT REUNION_LON REUNION_TYPE REUNION_WIND REUNION_PRES REUNION_TNUM REUNION_CI REUNION_RMW REUNION_R34_NE REUNION_R34_SE REUNION_R34_SW REUNION_R34_NW REUNION_R50_NE REUNION_R50_SE REUNION_R50_SW REUNION_R50_NW REUNION_R64_NE REUNION_R64_SE REUNION_R64_SW REUNION_R64_NW BOM_LAT BOM_LON BOM_TYPE BOM_WIND BOM_PRES BOM_TNUM BOM_CI BOM_RMW BOM_R34_NE BOM_R34_SE BOM_R34_SW BOM_R34_NW BOM_R50_NE BOM_R50_SE BOM_R50_SW BOM_R50_NW BOM_R64_NE BOM_R64_SE BOM_R64_SW BOM_R64_NW BOM_ROCI BOM_POCI BOM_EYE BOM_POS_METHOD BOM_PRES_METHOD NADI_LAT NADI_LON NADI_CAT NADI_WIND NADI_PRES WELLINGTON_LAT WELLINGTON_LON WELLINGTON_WIND WELLINGTON_PRES DS824_LAT DS824_LON DS824_STAGE DS824_WIND DS824_PRES TD9636_LAT TD9636_LON TD9636_STAGE TD9636_WIND TD9636_PRES TD9635_LAT TD9635_LON TD9635_WIND TD9635_PRES TD9635_ROCI NEUMANN_LAT NEUMANN_LON NEUMANN_CLASS NEUMANN_WIND NEUMANN_PRES MLC_LAT MLC_LON MLC_CLASS MLC_WIND MLC_PRES USA_GUST BOM_GUST BOM_GUST_PER REUNION_GUST REUNION_GUST_PER USA_SEAHGT USA_SEARAD_NE USA_SEARAD_SE USA_SEARAD_SW USA_SEARAD_NW STORM_SPEED STORM_DIR
1907269N17145 1907 51 WP MM NOT_NAMED 1907-09-25 16:00:00 NR 16.8000 144.800 main 2061 2019 __________O___ -1 16.8000 144.800 7 16 294
1907269N17145 1907 51 WP MM NOT_NAMED 1907-09-25 18:00:00 NR 17.0151 144.290 main 2019 1955 __________P___ -1 17.0151 144.290 7 16 294
1907269N17145 1907 51 WP MM NOT_NAMED 1907-09-25 21:00:00 NR 17.3308 143.540 main 1955 1898 __________P___ -1 17.3308 143.540 7 15 294
1907269N17145 1907 51 WP MM NOT_NAMED 1907-09-26 00:00:00 NR 17.6321 142.832 main 1898 1845 __________P___ -1 17.6321 142.832 7 14 294
1907269N17145 1907 51 WP MM NOT_NAMED 1907-09-26 03:00:00 NR 17.9123 142.193 main 1845 1827 __________P___ -1 17.9123 142.193 7 13 295
1907269N17145 1907 51 WP MM NOT_NAMED 1907-09-26 04:00:00 NR 18.0000 142.000 main 1827 1793 __________O___ -1 18.0000 142.000 7 12 296
1907269N17145 1907 51 WP MM NOT_NAMED 1907-09-26 06:00:00 NR 18.1666 141.648 main 1793 1754 __________P___ -1 18.1666 141.648 7 10 298
1907269N17145 1907 51 WP MM NOT_NAMED 1907-09-26 09:00:00 NR 18.4046 141.189 main 1754 1713 __________P___ -1 18.4046 141.189 7 9 300
1907269N17145 1907 51 WP MM NOT_NAMED 1907-09-26 12:00:00 NR 18.6447 140.790 main 1713 1662 __________P___ -1 18.6447 140.790 7 9 305
1907269N17145 1907 51 WP MM NOT_NAMED 1907-09-26 15:00:00 NR 18.9054 140.421 main 1662 1647 __________P___ -1 18.9054 140.421 7 9 307
1907269N17145 1907 51 WP MM NOT_NAMED 1907-09-26 16:00:00 NR 19.0000 140.300 main 1647 1612 __________O___ -1 19.0000 140.300 7 10 308
1907269N17145 1907 51 WP MM NOT_NAMED 1907-09-26 18:00:00 NR 19.2052 140.020 main 1612 1561 __________P___ -1 19.2052 140.020 7 10 310
1907269N17145 1907 51 WP MM NOT_NAMED 1907-09-26 21:00:00 NR 19.5383 139.613 main 1561 1502 __________P___ -1 19.5383 139.613 7 10 313
1907269N17145 1907 51 WP MM NOT_NAMED 1907-09-27 00:00:00 NR 19.8959 139.234 main 1502 1447 __________P___ -1 19.8959 139.234 7 10 318
1907269N17145 1907 51 WP MM NOT_NAMED 1907-09-27 03:00:00 NR 20.2717 138.899 main 1447 1433 __________P___ -1 20.2717 138.899 7 10 321
1907269N17145 1907 51 WP MM NOT_NAMED 1907-09-27 04:00:00 NR 20.4000 138.800 main 1433 1403 __________O___ -1 20.4000 138.800 7 9 324
1907269N17145 1907 51 WP MM NOT_NAMED 1907-09-27 06:00:00 NR 20.6498 138.611 main 1403 1354 __________P___ -1 20.6498 138.611 7 9 328
1907269N17145 1907 51 WP MM NOT_NAMED 1907-09-27 09:00:00 NR 21.0371 138.371 main 1354 1305 __________P___ -1 21.0371 138.371 7 9 333
1907269N17145 1907 51 WP MM NOT_NAMED 1907-09-27 12:00:00 NR 21.4397 138.181 main 1305 1246 __________P___ -1 21.4397 138.181 7 9 339
1907269N17145 1907 51 WP MM NOT_NAMED 1907-09-27 15:00:00 NR 21.8574 138.038 main 1246 1236 __________P___ -1 21.8574 138.038 7 9 343
1907269N17145 1907 51 WP MM NOT_NAMED 1907-09-27 16:00:00 NR 22.0000 138.000 main 1236 1202 __________O___ -1 22.0000 138.000 7 9 346
1907269N17145 1907 51 WP MM NOT_NAMED 1907-09-27 18:00:00 NR 22.2963 137.914 main 1202 1149 __________P___ -1 22.2963 137.914 7 9 348
1907269N17145 1907 51 WP MM NOT_NAMED 1907-09-27 21:00:00 NR 22.7537 137.823 main 1149 1111 __________P___ -1 22.7537 137.823 7 9 352
1907269N17145 1907 51 WP MM NOT_NAMED 1907-09-28 00:00:00 NR 23.2126 137.779 main 1111 1065 __________P___ -1 23.2126 137.779 7 9 357
1907269N17145 1907 51 WP MM NOT_NAMED 1907-09-28 03:00:00 NR 23.6575 137.786 main 1065 1056 __________P___ -1 23.6575 137.786 7 9 0
1907269N17145 1907 51 WP MM NOT_NAMED 1907-09-28 04:00:00 NR 23.8000 137.800 main 1056 1029 __________O___ -1 23.8000 137.800 7 9 5
1907269N17145 1907 51 WP MM NOT_NAMED 1907-09-28 06:00:00 NR 24.0802 137.835 main 1029 999 __________P___ -1 24.0802 137.835 7 8 10
1907269N17145 1907 51 WP MM NOT_NAMED 1907-09-28 09:00:00 NR 24.4819 137.932 main 999 974 __________P___ -1 24.4819 137.932 7 8 15
1907269N17145 1907 51 WP MM NOT_NAMED 1907-09-28 12:00:00 NR 24.8557 138.071 main 974 944 __________P___ -1 24.8557 138.071 7 8 21
1907269N17145 1907 51 WP MM NOT_NAMED 1907-09-28 15:00:00 NR 25.1954 138.240 main 944 935 __________P___ -1 25.1954 138.240 7 7 25
1907269N17145 1907 51 WP MM NOT_NAMED 1907-09-28 16:00:00 NR 25.3000 138.300 main 935 916 __________O___ -1 25.3000 138.300 7 7 27
1907269N17145 1907 51 WP MM NOT_NAMED 1907-09-28 18:00:00 NR 25.5057 138.416 main 916 890 __________P___ -1 25.5057 138.416 7 7 30
1907269N17145 1907 51 WP MM NOT_NAMED 1907-09-28 21:00:00 NR 25.7830 138.609 main 890 874 __________P___ -1 25.7830 138.609 7 6 35
1907269N17145 1907 51 WP MM NOT_NAMED 1907-09-29 00:00:00 NR 26.0254 138.817 main 874 857 __________P___ -1 26.0254 138.817 7 6 40
1907269N17145 1907 51 WP MM NOT_NAMED 1907-09-29 03:00:00 NR 26.2362 139.030 main 860 853 __________P___ -1 26.2362 139.030 7 6 43
1907269N17145 1907 51 WP MM NOT_NAMED 1907-09-29 04:00:00 NR 26.3000 139.100 main 853 846 __________O___ -1 26.3000 139.100 7 5 43
1907269N17145 1907 51 WP MM NOT_NAMED 1907-09-29 06:00:00 NR 26.4280 139.234 main 846 833 __________P___ -1 26.4280 139.234 7 5 45
1907269N17145 1907 51 WP MM NOT_NAMED 1907-09-29 09:00:00 NR 26.5950 139.434 main 833 827 __________P___ -1 26.5950 139.434 7 5 49
1907269N17145 1907 51 WP MM NOT_NAMED 1907-09-29 12:00:00 NR 26.7374 139.634 main 831 820 __________P___ -1 26.7374 139.634 7 4 53
1907269N17145 1907 51 WP MM NOT_NAMED 1907-09-29 15:00:00 NR 26.8616 139.833 main 820 820 __________P___ -1 26.8616 139.833 7 4 56
1907269N17145 1907 51 WP MM NOT_NAMED 1907-09-29 16:00:00 NR 26.9000 139.900 main 825 819 __________O___ -1 26.9000 139.900 7 4 57
1907269N17145 1907 51 WP MM NOT_NAMED 1907-09-29 18:00:00 NR 26.9754 140.031 main 819 819 __________P___ -1 26.9754 140.031 7 4 59
1907269N17145 1907 51 WP MM NOT_NAMED 1907-09-29 21:00:00 NR 27.0758 140.227 main 819 819 __________P___ -1 27.0758 140.227 7 4 61
1907269N17145 1907 51 WP MM NOT_NAMED 1907-09-30 00:00:00 NR 27.1695 140.426 main 820 820 __________P___ -1 27.1695 140.426 7 4 62
1907269N17145 1907 51 WP MM NOT_NAMED 1907-09-30 03:00:00 NR 27.2657 140.630 main 821 821 __________P___ -1 27.2657 140.630 7 4 62
1907269N17145 1907 51 WP MM NOT_NAMED 1907-09-30 04:00:00 NR 27.3000 140.700 main 826 822 __________O___ -1 27.3000 140.700 7 4 58
1907269N17145 1907 51 WP MM NOT_NAMED 1907-09-30 06:00:00 NR 27.3828 140.844 main 822 819 __________P___ -1 27.3828 140.844 7 5 57
1907269N17145 1907 51 WP MM NOT_NAMED 1907-09-30 09:00:00 NR 27.5135 141.067 main 821 810 __________P___ -1 27.5135 141.067 7 5 57
1907269N17145 1907 51 WP MM NOT_NAMED 1907-09-30 12:00:00 NR 27.6436 141.294 main 816 800 __________P___ -1 27.6436 141.294 7 5 58
1907269N17145 1907 51 WP MM NOT_NAMED 1907-09-30 15:00:00 NR 27.7638 141.524 main 800 800 __________P___ -1 27.7638 141.524 7 5 60
1907269N17145 1907 51 WP MM NOT_NAMED 1907-09-30 16:00:00 NR 27.8000 141.600 main 803 796 __________O___ -1 27.8000 141.600 7 5 63
1907269N17145 1907 51 WP MM NOT_NAMED 1907-09-30 18:00:00 NR 27.8654 141.752 main 799 799 __________P___ -1 27.8654 141.752 7 4 66
1907269N17145 1907 51 WP MM NOT_NAMED 1907-09-30 21:00:00 NR 27.9483 141.978 main 805 794 __________P___ -1 27.9483 141.978 7 4 69
1907269N17145 1907 51 WP MM NOT_NAMED 1907-10-01 00:00:00 NR 28.0180 142.202 main 799 791 __________P___ -1 28.0180 142.202 7 4 72
1907269N17145 1907 51 WP MM NOT_NAMED 1907-10-01 03:00:00 NR 28.0801 142.426 main 794 794 __________P___ -1 28.0801 142.426 7 4 73
1907269N17145 1907 51 WP MM NOT_NAMED 1907-10-01 04:00:00 NR 28.1000 142.500 main 797 __________O___ -1 28.1000 142.500 7 4 73

Digital Typhoon Data and Search

About IBTrACS Database

This database is a web-friendly format of International Best Track Archive for Climate Stewardship (IBTrACS), a global best track data archive curated by NOAA dating back to 1842.

Updated: 2021-12-06